Altamahaw, North Carolina
Current Conditions -  °F | °C
As of 6:54 PM on Sunday 21 Dec 2014 (Local Time) from KBUY Reporting Station
Clear Clear  
Wind Chill: 38°   Ceiling: Unl
Heat Index: 41°   Visibility: 10mi
Dew Point: 32°   Wind: 5mph
Humidity: 70%   Direction: 50°NE
Pressure: 30.22"   Gusts: NA
Location:  36.18°N, 79.51°W
Report Text: KBUY 212354Z AUTO 05004KT 10SM CLR 05/00 A3022 RMK AO2 SLP237 T00500000 10106 20044 53002
Loading
Personal Weather Stations






























Interactive Weather Map New forecast layout! Learn more

10-Day Weather Forecast

Advertisements
Track Severe Weather on mobile